createdAt,value
2023-01-31T00:02:00.835Z,3.90
2023-01-31T00:04:30.440Z,4.00
2023-01-31T00:06:58.405Z,3.90
2023-01-31T00:09:26.283Z,3.80
2023-01-31T00:11:54.552Z,4.00
2023-01-31T00:14:22.627Z,4.10
2023-01-31T00:16:50.657Z,4.00
2023-01-31T00:19:18.978Z,3.90
2023-01-31T00:21:48.255Z,3.90
2023-01-31T00:24:16.960Z,4.00
2023-01-31T00:26:44.939Z,3.90
2023-01-31T00:29:13.305Z,3.90
2023-01-31T00:31:41.522Z,3.90
2023-01-31T00:34:10.110Z,3.90
2023-01-31T00:36:38.683Z,3.90
2023-01-31T00:39:09.771Z,3.90
2023-01-31T00:41:39.421Z,4.00
2023-01-31T00:44:08.243Z,4.00
2023-01-31T00:46:36.729Z,4.00
2023-01-31T00:49:05.123Z,4.00
2023-01-31T09:22:34.905Z,9.30
2023-01-31T09:25:03.527Z,10.70
2023-01-31T09:27:32.199Z,10.70
2023-01-31T09:30:00.720Z,11.00
2023-01-31T09:32:30.083Z,11.40
2023-01-31T09:34:58.022Z,11.80
2023-01-31T09:37:26.115Z,12.10
2023-01-31T09:39:55.363Z,12.60
2023-01-31T09:42:28.346Z,12.90
2023-01-31T09:45:02.209Z,12.90
2023-01-31T09:47:35.277Z,12.60
2023-01-31T09:50:24.970Z,12.50
2023-01-31T09:53:01.227Z,11.90
2023-01-31T09:55:37.900Z,11.30
2023-01-31T09:58:14.917Z,10.90
2023-01-31T10:00:49.653Z,10.70
2023-01-31T10:03:44.533Z,10.40
2023-01-31T10:06:18.887Z,10.10
2023-01-31T10:08:52.362Z,9.50
2023-01-31T10:11:30.747Z,9.10
2023-01-31T10:14:02.374Z,8.80
2023-01-31T10:16:34.888Z,8.50
2023-01-31T10:19:06.512Z,8.40
2023-01-31T10:21:41.115Z,8.20
2023-01-31T10:24:17.222Z,8.20
2023-01-31T10:26:49.501Z,8.10
2023-01-31T10:29:28.130Z,7.90
2023-01-31T10:32:01.226Z,8.40
2023-01-31T10:34:34.849Z,9.10
2023-01-31T10:37:07.432Z,9.10
2023-01-31T10:39:38.715Z,8.90
2023-01-31T10:42:19.504Z,8.60
2023-01-31T10:44:53.442Z,8.20
2023-01-31T10:47:23.658Z,7.80
2023-01-31T10:49:52.341Z,7.80
2023-01-31T10:52:42.194Z,7.70
2023-01-31T10:55:33.337Z,7.60
2023-01-31T10:58:03.560Z,7.20
2023-01-31T11:00:34.024Z,7.30
2023-01-31T11:03:01.952Z,7.40
2023-01-31T11:05:31.002Z,7.50
2023-01-31T11:08:00.006Z,7.60
2023-01-31T11:10:30.470Z,7.50
2023-01-31T11:13:02.007Z,7.60
2023-01-31T11:15:37.420Z,7.70
2023-01-31T11:18:06.354Z,7.60
2023-01-31T11:20:37.976Z,7.50
2023-01-31T11:23:08.172Z,7.50
2023-01-31T11:25:36.581Z,7.40
2023-01-31T11:28:17.601Z,7.30
2023-01-31T11:30:49.698Z,7.10
2023-01-31T11:33:39.515Z,7.00
2023-01-31T11:36:09.496Z,7.00
2023-01-31T11:38:37.569Z,6.70
2023-01-31T11:41:31.937Z,6.80
2023-01-31T11:44:14.965Z,6.70
2023-01-31T11:46:53.712Z,6.60
2023-01-31T11:49:28.240Z,6.60
2023-01-31T11:51:56.846Z,6.50
2023-01-31T11:54:28.301Z,6.60
2023-01-31T11:57:08.215Z,6.50
2023-01-31T11:59:36.523Z,6.60
2023-01-31T12:02:06.142Z,7.00
2023-01-31T12:04:41.548Z,7.10
2023-01-31T12:07:23.474Z,7.00
2023-01-31T12:09:51.504Z,7.00
2023-01-31T12:12:26.131Z,6.90
2023-01-31T12:14:57.390Z,7.00
2023-01-31T12:21:41.566Z,7.10
2023-01-31T12:27:50.645Z,7.10
2023-01-31T12:30:57.699Z,6.90
2023-01-31T12:33:56.789Z,6.80
2023-01-31T12:36:47.688Z,6.80
2023-01-31T12:39:54.707Z,6.80
2023-01-31T12:42:58.511Z,6.70
2023-01-31T12:45:59.351Z,6.70
2023-01-31T12:49:22.601Z,6.60
2023-01-31T12:52:04.330Z,6.60
2023-01-31T12:54:54.034Z,6.60
2023-01-31T12:57:57.071Z,6.40
2023-01-31T13:00:55.964Z,6.40
2023-01-31T13:03:55.597Z,6.20
2023-01-31T13:07:12.557Z,6.30
2023-01-31T13:10:14.109Z,6.60
2023-01-31T13:16:25.109Z,6.90
2023-01-31T13:23:00.146Z,6.90
2023-01-31T13:26:28.351Z,6.90
2023-01-31T13:33:09.375Z,7.30
2023-01-31T13:35:46.226Z,7.40
2023-01-31T13:38:33.913Z,7.30
2023-01-31T13:41:18.933Z,7.20
2023-01-31T13:44:10.915Z,6.90
2023-01-31T13:46:57.280Z,7.00
2023-01-31T13:49:46.983Z,6.80
2023-01-31T13:52:24.023Z,6.80
2023-01-31T13:58:57.472Z,6.50
2023-01-31T14:01:57.976Z,6.60
2023-01-31T14:04:57.044Z,6.60
2023-01-31T14:07:49.041Z,6.40
2023-01-31T14:10:38.944Z,6.50
2023-01-31T14:13:27.072Z,6.50
2023-01-31T14:15:57.041Z,6.40
2023-01-31T14:18:53.648Z,6.30
2023-01-31T14:21:57.984Z,6.30
2023-01-31T14:25:00.311Z,6.30
2023-01-31T14:27:32.280Z,6.20
2023-01-31T14:30:30.876Z,6.20
2023-01-31T14:33:18.182Z,6.10
2023-01-31T14:36:33.951Z,6.10
2023-01-31T14:39:34.814Z,6.20
2023-01-31T14:42:21.681Z,6.30
2023-01-31T14:45:04.844Z,6.30
2023-01-31T14:47:44.598Z,6.20
2023-01-31T14:50:30.398Z,6.10
2023-01-31T14:53:11.595Z,6.20
2023-01-31T14:55:50.226Z,6.20
2023-01-31T14:58:23.850Z,6.10
2023-01-31T15:00:55.757Z,6.20
2023-01-31T15:03:27.631Z,6.20
2023-01-31T15:06:06.431Z,6.20
2023-01-31T15:08:49.719Z,6.30
2023-01-31T15:11:42.313Z,6.20
2023-01-31T15:14:36.069Z,6.20
2023-01-31T15:17:20.174Z,6.10
2023-01-31T15:20:02.341Z,6.10
2023-01-31T15:22:32.037Z,6.10
2023-01-31T15:25:08.073Z,6.10
2023-01-31T15:27:43.194Z,6.00
2023-01-31T15:30:18.318Z,6.00
2023-01-31T15:32:52.741Z,5.90
2023-01-31T15:35:25.070Z,5.90
2023-01-31T15:37:58.185Z,5.90
2023-01-31T15:40:28.643Z,5.90
2023-01-31T15:43:17.044Z,5.70
2023-01-31T15:45:45.066Z,5.70
2023-01-31T15:48:15.170Z,5.70
2023-01-31T15:50:52.105Z,5.70
2023-01-31T15:53:23.487Z,5.70
2023-01-31T15:55:55.161Z,5.60
2023-01-31T15:58:26.897Z,5.70
2023-01-31T16:00:56.842Z,5.70
2023-01-31T16:03:27.803Z,5.70
2023-01-31T16:05:58.577Z,5.70
2023-01-31T16:08:31.495Z,5.60
2023-01-31T16:11:00.234Z,5.70
2023-01-31T16:13:30.460Z,5.70
2023-01-31T16:15:58.832Z,5.70
2023-01-31T16:18:27.513Z,5.70
2023-01-31T16:20:57.017Z,5.70
2023-01-31T16:23:28.993Z,5.70
2023-01-31T16:26:06.043Z,5.70
2023-01-31T16:28:42.289Z,5.70
2023-01-31T16:31:12.389Z,5.70
2023-01-31T16:33:47.119Z,5.80
2023-01-31T16:36:18.418Z,5.70
2023-01-31T16:38:57.596Z,5.70
2023-01-31T16:41:49.212Z,5.60
2023-01-31T16:44:22.011Z,5.60
2023-01-31T16:46:51.593Z,5.70
2023-01-31T16:49:22.130Z,5.70
2023-01-31T16:51:51.290Z,5.70
2023-01-31T16:54:23.408Z,5.70
2023-01-31T16:57:08.844Z,5.70
2023-01-31T16:59:45.560Z,5.70
2023-01-31T17:02:19.230Z,5.80
2023-01-31T17:04:49.913Z,5.80
2023-01-31T17:07:20.942Z,5.70
2023-01-31T17:09:50.165Z,5.70
2023-01-31T17:12:21.104Z,5.70
2023-01-31T17:14:53.148Z,5.70
2023-01-31T17:17:46.193Z,5.70
2023-01-31T17:20:15.999Z,5.70
2023-01-31T17:22:53.232Z,5.70
2023-01-31T17:25:24.768Z,5.60
2023-01-31T17:27:54.245Z,5.60
2023-01-31T17:30:23.877Z,5.60
2023-01-31T17:32:51.932Z,5.60
2023-01-31T17:35:22.504Z,5.70
2023-01-31T17:37:50.760Z,5.60
2023-01-31T17:40:18.899Z,5.70
2023-01-31T17:42:47.044Z,5.90
2023-01-31T17:45:17.544Z,5.90
2023-01-31T17:47:47.470Z,5.90
2023-01-31T17:50:17.322Z,5.90
2023-01-31T17:52:45.622Z,5.90
2023-01-31T17:55:14.285Z,5.90
2023-01-31T17:57:42.618Z,5.80
2023-01-31T18:00:12.919Z,5.80
2023-01-31T18:02:42.419Z,5.80
2023-01-31T18:05:12.839Z,5.80
2023-01-31T18:07:41.014Z,5.70
2023-01-31T18:10:10.999Z,5.80
2023-01-31T18:12:39.061Z,5.80
2023-01-31T18:15:07.917Z,5.70
2023-01-31T18:17:35.975Z,5.70
2023-01-31T18:20:04.585Z,5.60
2023-01-31T18:22:33.959Z,5.60
2023-01-31T18:25:02.039Z,5.60
2023-01-31T18:27:29.971Z,5.60
2023-01-31T18:29:58.047Z,5.60
2023-01-31T18:32:26.114Z,5.50
2023-01-31T18:34:54.255Z,5.50
2023-01-31T18:37:22.290Z,5.50
2023-01-31T18:39:52.577Z,5.60
2023-01-31T18:42:21.394Z,5.60
2023-01-31T18:44:49.525Z,5.60
2023-01-31T18:47:18.064Z,5.60
2023-01-31T18:49:45.953Z,5.60
2023-01-31T18:52:13.868Z,5.60
2023-01-31T18:54:41.936Z,5.50
2023-01-31T18:57:11.404Z,5.50
2023-01-31T18:59:39.291Z,5.50
2023-01-31T19:02:07.628Z,5.50
2023-01-31T19:04:36.138Z,5.60
2023-01-31T19:07:04.049Z,5.60
2023-01-31T19:09:32.077Z,5.60
2023-01-31T19:12:00.120Z,5.60
2023-01-31T19:14:30.324Z,5.60
2023-01-31T19:16:59.477Z,5.60
2023-01-31T19:19:27.705Z,5.50
2023-01-31T19:21:56.392Z,5.50
2023-01-31T19:24:24.563Z,5.60
2023-01-31T19:26:52.678Z,5.70
2023-01-31T19:29:20.835Z,5.70
2023-01-31T19:31:50.167Z,5.60
2023-01-31T19:34:18.207Z,5.60
2023-01-31T19:36:46.848Z,5.60
2023-01-31T19:39:14.982Z,5.60
2023-01-31T19:41:43.300Z,5.50
2023-01-31T19:44:11.683Z,5.50
2023-01-31T19:46:39.615Z,5.50
2023-01-31T19:49:09.116Z,5.50
2023-01-31T19:51:37.946Z,5.60
2023-01-31T19:54:06.630Z,5.50
2023-01-31T19:56:34.975Z,5.40
2023-01-31T19:59:02.881Z,5.40
2023-01-31T20:01:31.000Z,5.50
2023-01-31T20:03:59.154Z,5.50
2023-01-31T20:06:30.447Z,5.60
2023-01-31T20:09:00.415Z,5.50
2023-01-31T20:11:30.207Z,5.50
2023-01-31T20:13:58.925Z,5.50
2023-01-31T20:16:27.235Z,5.50
2023-01-31T20:18:56.474Z,5.60
2023-01-31T20:21:24.929Z,5.50
2023-01-31T20:23:54.360Z,5.60
2023-01-31T20:26:24.167Z,5.70
2023-01-31T20:28:52.821Z,5.60
2023-01-31T20:31:20.831Z,5.50
2023-01-31T20:33:48.945Z,5.50
2023-01-31T20:36:16.971Z,5.50
2023-01-31T20:38:44.881Z,5.50
2023-01-31T20:41:15.463Z,5.50
2023-01-31T20:43:44.096Z,5.40
2023-01-31T20:46:14.309Z,5.40
2023-01-31T20:48:44.119Z,5.30
2023-01-31T20:51:12.448Z,5.30
2023-01-31T20:53:40.710Z,5.30
2023-01-31T20:56:10.700Z,5.30
2023-01-31T20:58:41.743Z,5.40
2023-01-31T21:01:11.217Z,5.40
2023-01-31T21:03:39.362Z,5.40
2023-01-31T21:06:08.976Z,5.40
2023-01-31T21:08:37.605Z,5.50
2023-01-31T21:11:07.777Z,5.40
2023-01-31T21:13:36.703Z,5.50
2023-01-31T21:16:08.755Z,5.50
2023-01-31T21:18:38.731Z,5.50
2023-01-31T21:21:09.303Z,5.50
2023-01-31T21:23:38.535Z,5.50
2023-01-31T21:26:08.558Z,5.50
2023-01-31T21:28:37.515Z,5.30
2023-01-31T21:31:08.889Z,5.30
2023-01-31T21:33:37.506Z,5.30
2023-01-31T21:36:09.060Z,5.30
2023-01-31T21:38:36.996Z,5.40
2023-01-31T21:41:23.047Z,5.30
2023-01-31T21:43:50.953Z,5.30
2023-01-31T21:46:20.406Z,5.30
2023-01-31T21:48:48.747Z,5.40
2023-01-31T21:51:18.308Z,5.40
2023-01-31T21:53:46.751Z,5.40
2023-01-31T21:56:16.751Z,5.40
2023-01-31T21:58:45.443Z,5.30
2023-01-31T22:01:15.676Z,5.30
2023-01-31T22:03:48.339Z,5.30
2023-01-31T22:06:19.301Z,5.40
2023-01-31T22:08:51.807Z,5.30
2023-01-31T22:11:19.908Z,5.30
2023-01-31T22:13:51.617Z,5.20
2023-01-31T22:16:22.437Z,5.20
2023-01-31T22:18:52.085Z,5.20
2023-01-31T22:21:21.927Z,5.20
2023-01-31T22:23:51.829Z,5.20
2023-01-31T22:26:22.423Z,5.10
2023-01-31T22:28:51.388Z,5.10
2023-01-31T22:31:20.284Z,5.20
2023-01-31T22:33:49.034Z,5.20
2023-01-31T22:36:18.712Z,5.10
2023-01-31T22:38:48.083Z,5.10
2023-01-31T22:41:19.893Z,5.10
2023-01-31T22:43:49.900Z,5.10
2023-01-31T22:46:20.111Z,5.10
2023-01-31T22:48:49.297Z,5.10
2023-01-31T22:51:20.472Z,5.00
2023-01-31T22:53:48.914Z,5.00
2023-01-31T22:56:19.246Z,5.10
2023-01-31T22:58:47.261Z,5.00
2023-01-31T23:01:17.286Z,5.10
2023-01-31T23:03:46.031Z,5.20
2023-01-31T23:06:15.160Z,5.30
2023-01-31T23:08:45.550Z,5.30
2023-01-31T23:11:15.728Z,5.20
2023-01-31T23:13:44.867Z,5.20
2023-01-31T23:16:20.351Z,5.30
2023-01-31T23:18:49.093Z,5.30
2023-01-31T23:21:19.245Z,5.30
2023-01-31T23:23:48.798Z,5.20
2023-01-31T23:26:16.910Z,5.30
2023-01-31T23:28:44.799Z,5.30
2023-01-31T23:31:13.244Z,5.30
2023-01-31T23:33:41.267Z,5.40
2023-01-31T23:36:09.861Z,5.30
2023-01-31T23:38:38.069Z,5.30
2023-01-31T23:41:07.585Z,5.50
2023-01-31T23:43:35.467Z,5.50
2023-01-31T23:46:03.546Z,5.50
2023-01-31T23:48:31.496Z,5.50
2023-01-31T23:51:03.928Z,5.50
2023-01-31T23:53:31.963Z,5.50
2023-01-31T23:55:59.914Z,5.50
2023-01-31T23:58:29.571Z,5.40
